Terminal Aerodrome Forecast
Issued by NWS

Home | Current Version | Previous Version | Text Only | Print | Product List | Glossary On
Versions: 1 2 3 4 5 6 7 8 9 10 11 12 13 14 15 16 17 18 19 20 21
000
FTUS46 KMTR 232300 RRA
TAFOAK
TAF
KOAK 232345Z 2400/2506 28015KT P6SM SCT050
     FM240400 26010KT P6SM SKC
     FM241000 09003KT P6SM SKC
      TEMPO 2412/2416 BKN008
     FM241800 27008KT P6SM SKC
     FM242100 29014KT P6SM SKC
     FM250300 29009KT P6SM SKC=

USA.gov is the U.S. government's official web portal to all federal, state and local government web resources and services.